createdAt,value
2018-06-30T00:01:23.233Z,24.00
2018-06-30T00:03:53.552Z,23.90
2018-06-30T00:06:25.574Z,23.80
2018-06-30T00:08:56.780Z,23.77
2018-06-30T00:11:27.284Z,23.77
2018-06-30T00:13:57.347Z,23.74
2018-06-30T00:16:27.492Z,23.69
2018-06-30T00:18:57.692Z,23.65
2018-06-30T00:21:27.907Z,23.63
2018-06-30T00:23:58.130Z,23.63
2018-06-30T00:26:28.328Z,23.57
2018-06-30T00:28:58.540Z,23.52
2018-06-30T00:31:28.558Z,23.53
2018-06-30T00:33:58.814Z,23.54
2018-06-30T00:36:28.968Z,23.45
2018-06-30T00:38:59.220Z,23.36
2018-06-30T00:41:29.436Z,23.36
2018-06-30T00:43:59.780Z,23.37
2018-06-30T00:46:29.960Z,23.32
2018-06-30T00:48:59.955Z,23.22
2018-06-30T00:51:30.179Z,23.26
2018-06-30T00:54:00.360Z,23.28
2018-06-30T00:56:30.535Z,23.11
2018-06-30T00:59:00.465Z,23.09
2018-06-30T01:01:31.068Z,23.13
2018-06-30T01:04:01.119Z,23.18
2018-06-30T01:06:31.345Z,23.16
2018-06-30T01:09:01.574Z,23.20
2018-06-30T01:11:32.491Z,23.16
2018-06-30T01:14:02.830Z,23.16
2018-06-30T01:16:32.984Z,23.11
2018-06-30T01:19:03.291Z,23.15
2018-06-30T01:21:33.413Z,23.13
2018-06-30T01:24:03.732Z,23.06
2018-06-30T01:26:33.918Z,23.01
2018-06-30T01:29:05.064Z,22.99
2018-06-30T01:31:35.175Z,23.00
2018-06-30T01:34:05.508Z,22.95
2018-06-30T01:36:35.860Z,22.91
2018-06-30T01:39:09.880Z,22.90
2018-06-30T01:41:40.444Z,22.85
2018-06-30T01:44:10.594Z,22.77
2018-06-30T01:46:40.860Z,22.77
2018-06-30T01:49:10.938Z,22.78
2018-06-30T01:51:40.958Z,22.84
2018-06-30T01:54:10.973Z,22.76
2018-06-30T01:56:41.121Z,22.78
2018-06-30T01:59:11.194Z,22.73
2018-06-30T02:01:42.019Z,22.65
2018-06-30T02:04:12.955Z,22.64
2018-06-30T02:06:43.784Z,22.59
2018-06-30T02:09:14.289Z,22.59
2018-06-30T02:11:45.203Z,22.63
2018-06-30T02:14:15.216Z,22.63
2018-06-30T02:16:45.652Z,22.69
2018-06-30T02:19:15.786Z,22.69
2018-06-30T02:21:45.966Z,22.69
2018-06-30T02:24:15.888Z,22.69
2018-06-30T02:26:46.274Z,22.69
2018-06-30T02:29:16.570Z,22.68
2018-06-30T02:31:46.798Z,22.66
2018-06-30T02:34:16.966Z,22.62
2018-06-30T02:36:47.103Z,22.57
2018-06-30T02:39:17.514Z,22.54
2018-06-30T02:41:47.630Z,22.52
2018-06-30T02:44:18.281Z,22.51
2018-06-30T02:46:48.499Z,22.51
2018-06-30T02:49:19.043Z,22.48
2018-06-30T02:51:49.359Z,22.42
2018-06-30T02:54:19.436Z,22.42
2018-06-30T02:56:49.824Z,22.34
2018-06-30T02:59:19.924Z,22.25
2018-06-30T03:01:50.235Z,22.21
2018-06-30T03:04:20.266Z,22.12
2018-06-30T03:06:50.508Z,22.08
2018-06-30T03:09:20.821Z,22.07
2018-06-30T03:11:50.909Z,22.06
2018-06-30T03:14:21.124Z,22.03
2018-06-30T03:16:51.270Z,21.97
2018-06-30T03:19:21.441Z,21.89
2018-06-30T03:21:51.679Z,21.90
2018-06-30T03:24:22.046Z,21.89
2018-06-30T03:26:52.074Z,21.91
2018-06-30T03:29:22.165Z,21.92
2018-06-30T03:31:52.444Z,21.90
2018-06-30T03:34:22.808Z,21.89
2018-06-30T03:36:52.976Z,21.83
2018-06-30T03:39:23.499Z,21.81
2018-06-30T03:41:53.419Z,21.81
2018-06-30T03:44:23.480Z,21.83
2018-06-30T03:46:53.464Z,21.84
2018-06-30T03:49:23.727Z,21.83
2018-06-30T03:51:54.199Z,21.84
2018-06-30T03:54:24.230Z,21.81
2018-06-30T03:56:54.464Z,21.78
2018-06-30T03:59:24.552Z,21.76
2018-06-30T04:01:54.806Z,21.73
2018-06-30T04:04:25.108Z,21.71
2018-06-30T04:06:55.322Z,21.75
2018-06-30T04:09:25.424Z,21.81
2018-06-30T04:11:55.669Z,21.80
2018-06-30T04:14:25.910Z,21.79
2018-06-30T04:16:56.037Z,21.81
2018-06-30T04:19:26.161Z,21.78
2018-06-30T04:21:56.317Z,21.74
2018-06-30T04:24:26.685Z,21.67
2018-06-30T04:26:56.829Z,21.70
2018-06-30T04:29:27.030Z,21.78
2018-06-30T04:31:57.064Z,21.86
2018-06-30T04:34:27.549Z,21.93
2018-06-30T04:36:57.582Z,21.96
2018-06-30T04:39:27.652Z,22.02
2018-06-30T04:41:57.749Z,22.03
2018-06-30T04:44:28.115Z,22.16
2018-06-30T04:46:58.361Z,22.21
2018-06-30T04:49:28.431Z,22.20
2018-06-30T04:51:58.459Z,22.21
2018-06-30T04:54:29.160Z,22.19
2018-06-30T04:56:59.615Z,22.21
2018-06-30T04:59:29.797Z,22.12
2018-06-30T05:02:00.371Z,22.09
2018-06-30T05:04:31.574Z,21.99
2018-06-30T05:07:02.720Z,21.85
2018-06-30T05:09:33.965Z,21.74
2018-06-30T05:12:05.025Z,21.74
2018-06-30T05:20:33.284Z,21.75
2018-06-30T05:23:03.551Z,21.81
2018-06-30T05:25:33.729Z,21.83
2018-06-30T05:28:03.915Z,21.98
2018-06-30T05:30:33.944Z,22.07
2018-06-30T05:33:04.354Z,22.11
2018-06-30T05:35:34.445Z,22.13
2018-06-30T05:38:04.705Z,22.18
2018-06-30T05:40:34.886Z,22.23
2018-06-30T05:43:05.024Z,22.59
2018-06-30T05:45:35.234Z,22.95
2018-06-30T05:48:05.596Z,23.21
2018-06-30T05:50:35.540Z,23.52
2018-06-30T05:53:06.720Z,23.61
2018-06-30T05:55:37.070Z,23.75
2018-06-30T05:58:07.796Z,23.96
2018-06-30T06:00:37.974Z,24.18
2018-06-30T06:03:08.415Z,24.31
2018-06-30T06:05:38.616Z,24.54
2018-06-30T06:08:08.826Z,24.57
2018-06-30T06:10:39.273Z,24.59
2018-06-30T06:13:09.151Z,24.66
2018-06-30T06:15:39.281Z,24.81
2018-06-30T06:18:09.851Z,24.96
2018-06-30T06:20:40.230Z,25.10
2018-06-30T06:23:10.410Z,25.28
2018-06-30T06:25:40.509Z,25.35
2018-06-30T06:28:10.592Z,25.37
2018-06-30T06:30:40.828Z,25.49
2018-06-30T06:33:11.351Z,25.35
2018-06-30T06:35:42.084Z,25.31
2018-06-30T06:38:13.233Z,25.22
2018-06-30T06:40:44.356Z,25.23
2018-06-30T06:43:15.145Z,25.22
2018-06-30T06:45:46.844Z,25.32
2018-06-30T06:48:17.475Z,25.39
2018-06-30T06:50:48.591Z,25.44
2018-06-30T06:53:19.673Z,25.48
2018-06-30T06:55:50.606Z,25.60
2018-06-30T06:58:21.451Z,25.67
2018-06-30T07:00:52.135Z,25.57
2018-06-30T07:03:22.292Z,25.50
2018-06-30T07:05:52.408Z,25.40
2018-06-30T07:08:22.947Z,25.46
2018-06-30T07:10:53.650Z,25.52
2018-06-30T07:13:23.860Z,25.45
2018-06-30T07:15:53.986Z,25.24
2018-06-30T07:18:24.420Z,25.08
2018-06-30T07:20:54.461Z,25.04
2018-06-30T07:23:24.576Z,24.95
2018-06-30T07:25:54.575Z,24.82
2018-06-30T07:28:24.470Z,24.76
2018-06-30T07:30:54.780Z,24.80
2018-06-30T07:33:25.648Z,24.84
2018-06-30T07:35:56.089Z,24.81
2018-06-30T07:38:26.627Z,24.80
2018-06-30T07:40:57.306Z,24.80
2018-06-30T07:43:27.508Z,24.78
2018-06-30T07:45:57.577Z,24.74
2018-06-30T07:48:27.651Z,24.78
2018-06-30T07:50:57.770Z,24.82
2018-06-30T07:53:28.006Z,24.79
2018-06-30T07:55:58.111Z,24.84
2018-06-30T07:58:28.238Z,24.93
2018-06-30T08:00:58.417Z,24.99
2018-06-30T08:03:28.562Z,25.00
2018-06-30T08:05:58.631Z,25.11
2018-06-30T08:08:29.168Z,25.14
2018-06-30T08:10:59.336Z,25.24
2018-06-30T08:13:29.571Z,25.31
2018-06-30T08:15:59.655Z,25.19
2018-06-30T08:18:29.778Z,25.13
2018-06-30T08:20:59.882Z,25.20
2018-06-30T08:23:30.160Z,25.29
2018-06-30T08:26:01.590Z,25.34
2018-06-30T08:28:32.358Z,25.39
2018-06-30T08:31:03.459Z,25.35
2018-06-30T08:33:34.062Z,25.30
2018-06-30T08:36:05.425Z,25.27
2018-06-30T08:38:36.215Z,25.36
2018-06-30T08:41:07.370Z,25.44
2018-06-30T08:43:38.231Z,25.53
2018-06-30T08:46:09.646Z,25.70
2018-06-30T08:48:40.230Z,25.72
2018-06-30T08:51:11.062Z,25.71
2018-06-30T08:53:41.303Z,25.78
2018-06-30T08:56:11.622Z,25.79
2018-06-30T08:58:42.007Z,25.77
2018-06-30T09:01:12.387Z,25.76
2018-06-30T09:03:42.556Z,25.83
2018-06-30T09:06:12.940Z,25.83
2018-06-30T09:08:43.591Z,25.88
2018-06-30T09:11:13.733Z,25.84
2018-06-30T09:13:43.920Z,25.86
2018-06-30T09:16:14.244Z,25.92
2018-06-30T09:18:44.451Z,25.89
2018-06-30T09:21:14.548Z,25.93
2018-06-30T09:23:44.718Z,26.01
2018-06-30T09:26:14.943Z,26.11
2018-06-30T09:28:45.147Z,26.19
2018-06-30T09:31:15.303Z,26.09
2018-06-30T09:33:45.466Z,26.06
2018-06-30T09:36:15.739Z,26.12
2018-06-30T09:38:45.921Z,26.30
2018-06-30T09:41:15.979Z,26.39
2018-06-30T09:43:46.206Z,26.52
2018-06-30T09:46:16.562Z,26.51
2018-06-30T09:48:46.518Z,26.48
2018-06-30T09:51:16.881Z,26.47
2018-06-30T09:53:47.025Z,26.55
2018-06-30T09:56:17.425Z,26.66
2018-06-30T09:58:47.533Z,26.64
2018-06-30T10:01:17.740Z,26.71
2018-06-30T10:03:47.936Z,26.71
2018-06-30T10:06:17.997Z,26.74
2018-06-30T10:08:48.292Z,26.71
2018-06-30T10:11:18.554Z,26.72
2018-06-30T10:13:48.767Z,26.76
2018-06-30T10:16:18.851Z,26.81
2018-06-30T10:18:49.242Z,26.87
2018-06-30T10:21:19.800Z,26.90
2018-06-30T10:23:50.240Z,26.87
2018-06-30T10:26:20.317Z,26.90
2018-06-30T10:28:50.827Z,26.87
2018-06-30T10:31:21.138Z,26.86
2018-06-30T10:33:51.397Z,26.90
2018-06-30T10:36:21.557Z,26.94
2018-06-30T10:38:51.804Z,26.87
2018-06-30T10:41:21.894Z,26.89
2018-06-30T10:43:52.121Z,26.94
2018-06-30T10:46:22.188Z,26.86
2018-06-30T10:48:52.491Z,26.91
2018-06-30T10:51:22.810Z,26.92
2018-06-30T10:53:53.156Z,26.98
2018-06-30T10:56:23.780Z,26.95
2018-06-30T10:58:54.038Z,26.97
2018-06-30T11:01:24.998Z,27.01
2018-06-30T11:03:55.608Z,27.02
2018-06-30T11:06:26.326Z,27.09
2018-06-30T11:08:57.692Z,27.14
2018-06-30T11:11:28.368Z,27.26
2018-06-30T11:13:59.501Z,27.32
2018-06-30T11:16:30.411Z,27.33
2018-06-30T11:19:01.472Z,27.40
2018-06-30T11:21:32.472Z,27.43
2018-06-30T11:24:03.814Z,27.51
2018-06-30T11:26:34.263Z,27.52
2018-06-30T11:29:05.930Z,27.49
2018-06-30T11:31:36.386Z,27.61
2018-06-30T11:34:07.822Z,27.67
2018-06-30T11:36:38.593Z,27.72
2018-06-30T11:39:13.051Z,27.76
2018-06-30T11:41:43.886Z,27.73
2018-06-30T11:44:14.244Z,27.86
2018-06-30T11:46:44.469Z,27.89
2018-06-30T11:49:14.709Z,27.94
2018-06-30T11:51:44.865Z,27.89
2018-06-30T11:54:16.126Z,28.01
2018-06-30T11:56:47.108Z,28.01
2018-06-30T11:59:18.150Z,28.13
2018-06-30T12:01:48.403Z,28.18
2018-06-30T12:04:18.661Z,28.22
2018-06-30T12:06:48.915Z,28.32
2018-06-30T12:09:19.137Z,28.44
2018-06-30T12:11:49.041Z,28.40
2018-06-30T12:14:19.427Z,28.43
2018-06-30T12:16:49.731Z,28.50
2018-06-30T12:19:19.867Z,28.49
2018-06-30T12:21:50.052Z,28.55
2018-06-30T12:24:20.055Z,28.67
2018-06-30T12:26:50.521Z,28.74
2018-06-30T12:29:20.940Z,28.93
2018-06-30T12:31:51.103Z,28.79
2018-06-30T12:34:21.181Z,28.74
2018-06-30T12:36:51.336Z,28.74
2018-06-30T12:39:21.494Z,28.83
2018-06-30T12:41:51.709Z,28.93
2018-06-30T12:44:21.888Z,28.98
2018-06-30T12:46:52.203Z,29.10
2018-06-30T12:49:22.469Z,29.14
2018-06-30T12:51:52.897Z,29.24
2018-06-30T12:54:24.653Z,29.14
2018-06-30T12:56:55.443Z,29.14
2018-06-30T12:59:25.781Z,29.26
2018-06-30T13:01:56.206Z,29.29
2018-06-30T13:04:26.529Z,29.30
2018-06-30T13:06:56.833Z,29.41
2018-06-30T13:09:27.346Z,29.50
2018-06-30T13:11:57.977Z,29.55
2018-06-30T13:14:28.197Z,29.65
2018-06-30T13:16:58.526Z,29.74
2018-06-30T13:19:28.667Z,29.74
2018-06-30T13:21:58.901Z,29.82
2018-06-30T13:24:28.864Z,29.90
2018-06-30T13:26:58.997Z,29.97
2018-06-30T13:29:29.333Z,30.05
2018-06-30T13:31:59.584Z,30.03
2018-06-30T13:34:29.762Z,30.05
2018-06-30T13:36:59.901Z,30.10
2018-06-30T13:39:30.129Z,30.16
2018-06-30T13:42:00.451Z,30.17
2018-06-30T13:44:30.799Z,30.26
2018-06-30T13:47:00.949Z,30.41
2018-06-30T13:49:31.253Z,30.38
2018-06-30T13:52:01.446Z,30.45
2018-06-30T13:54:32.014Z,30.49
2018-06-30T13:57:02.412Z,30.62
2018-06-30T13:59:32.703Z,30.79
2018-06-30T14:02:02.808Z,30.90
2018-06-30T14:04:32.917Z,31.04
2018-06-30T14:07:03.194Z,31.07
2018-06-30T14:09:33.497Z,31.14
2018-06-30T14:12:03.534Z,31.06
2018-06-30T14:14:33.746Z,31.13
2018-06-30T14:17:03.927Z,31.13
2018-06-30T14:19:34.254Z,31.29
2018-06-30T14:22:04.294Z,31.34
2018-06-30T14:24:34.533Z,31.29
2018-06-30T14:27:04.861Z,31.23
2018-06-30T14:29:35.149Z,31.28
2018-06-30T14:32:05.196Z,31.31
2018-06-30T14:34:35.302Z,31.31
2018-06-30T14:37:05.468Z,31.27
2018-06-30T14:39:35.700Z,31.47
2018-06-30T14:42:05.845Z,31.61
2018-06-30T14:44:35.947Z,31.57
2018-06-30T14:47:06.151Z,31.51
2018-06-30T14:50:32.283Z,31.58
2018-06-30T14:53:02.315Z,31.67
2018-06-30T14:55:32.647Z,31.76
2018-06-30T14:58:02.807Z,31.87
2018-06-30T15:00:33.097Z,31.93
2018-06-30T15:03:03.500Z,32.07
2018-06-30T15:05:34.129Z,32.14
2018-06-30T15:08:04.476Z,32.21
2018-06-30T15:10:34.532Z,32.22
2018-06-30T15:13:04.766Z,32.11
2018-06-30T15:15:35.017Z,32.17
2018-06-30T15:18:05.245Z,32.27
2018-06-30T15:20:35.559Z,32.26
2018-06-30T15:23:05.802Z,32.39
2018-06-30T15:25:36.005Z,32.53
2018-06-30T15:28:06.571Z,32.56
2018-06-30T15:30:37.235Z,32.57
2018-06-30T15:33:07.267Z,32.50
2018-06-30T15:35:37.592Z,32.53
2018-06-30T15:38:07.758Z,32.82
2018-06-30T15:40:38.027Z,33.02
2018-06-30T15:43:08.084Z,33.05
2018-06-30T15:45:38.343Z,33.12
2018-06-30T15:48:08.569Z,33.23
2018-06-30T15:50:38.753Z,33.37
2018-06-30T15:53:09.027Z,33.37
2018-06-30T15:55:39.203Z,33.35
2018-06-30T15:58:09.554Z,33.44
2018-06-30T16:00:39.838Z,33.48
2018-06-30T16:03:10.156Z,33.28
2018-06-30T16:05:40.711Z,33.19
2018-06-30T16:08:10.963Z,33.08
2018-06-30T16:10:41.394Z,33.30
2018-06-30T16:13:11.963Z,33.55
2018-06-30T16:15:42.816Z,33.36
2018-06-30T16:18:14.065Z,33.70
2018-06-30T16:20:45.085Z,34.13
2018-06-30T16:23:16.335Z,34.56
2018-06-30T16:25:47.289Z,34.79
2018-06-30T16:30:33.908Z,34.39
2018-06-30T16:33:04.132Z,37.07
2018-06-30T16:35:34.328Z,38.10
2018-06-30T16:38:04.625Z,38.39
2018-06-30T16:40:34.858Z,38.27
2018-06-30T16:43:05.029Z,39.08
2018-06-30T16:45:35.105Z,38.83
2018-06-30T16:48:05.364Z,39.09
2018-06-30T16:50:35.544Z,39.38
2018-06-30T16:53:05.787Z,39.84
2018-06-30T16:55:35.907Z,40.05
2018-06-30T16:58:06.121Z,40.19
2018-06-30T17:00:37.530Z,40.57
2018-06-30T17:03:08.768Z,40.77
2018-06-30T17:05:38.646Z,40.69
2018-06-30T17:08:08.902Z,40.71
2018-06-30T17:10:39.167Z,40.30
2018-06-30T17:13:09.157Z,39.59
2018-06-30T17:15:39.290Z,39.99
2018-06-30T17:18:09.712Z,39.71
2018-06-30T17:20:41.069Z,39.90
2018-06-30T17:23:11.474Z,39.71
2018-06-30T17:25:42.215Z,39.43
2018-06-30T17:28:13.335Z,39.73
2018-06-30T17:30:44.090Z,39.71
2018-06-30T17:33:14.772Z,39.73
2018-06-30T17:35:46.047Z,40.09
2018-06-30T17:38:17.384Z,40.20
2018-06-30T17:40:48.213Z,40.25
2018-06-30T17:43:19.198Z,40.17
2018-06-30T17:45:50.241Z,39.32
2018-06-30T17:48:20.755Z,39.04
2018-06-30T17:50:50.902Z,38.65
2018-06-30T17:53:21.162Z,38.08
2018-06-30T17:55:51.428Z,38.38
2018-06-30T17:58:21.549Z,38.29
2018-06-30T18:00:51.869Z,37.86
2018-06-30T18:03:22.009Z,37.62
2018-06-30T18:05:52.254Z,37.70
2018-06-30T18:08:22.385Z,37.93
2018-06-30T18:10:52.949Z,37.90
2018-06-30T18:13:23.312Z,37.72
2018-06-30T18:15:53.787Z,37.81
2018-06-30T18:18:24.164Z,37.54
2018-06-30T18:20:54.223Z,37.53
2018-06-30T18:23:24.759Z,37.14
2018-06-30T18:25:55.390Z,36.25
2018-06-30T18:28:25.697Z,35.88
2018-06-30T18:30:56.078Z,35.54
2018-06-30T18:33:26.239Z,35.52
2018-06-30T18:35:56.677Z,35.47
2018-06-30T18:38:26.818Z,35.16
2018-06-30T18:40:57.100Z,34.62
2018-06-30T18:43:27.345Z,33.18
2018-06-30T18:45:57.768Z,31.94
2018-06-30T18:48:28.206Z,31.13
2018-06-30T18:50:58.652Z,30.47
2018-06-30T18:53:29.009Z,30.01
2018-06-30T18:55:59.290Z,29.63
2018-06-30T18:58:29.307Z,29.38
2018-06-30T19:00:59.595Z,29.00
2018-06-30T19:03:29.829Z,28.68
2018-06-30T19:06:00.319Z,28.49
2018-06-30T19:08:30.893Z,28.22
2018-06-30T19:11:01.340Z,27.98
2018-06-30T19:13:31.449Z,27.88
2018-06-30T19:16:01.833Z,27.72
2018-06-30T19:18:32.068Z,27.53
2018-06-30T19:21:02.044Z,27.50
2018-06-30T19:23:32.315Z,27.43
2018-06-30T19:26:03.136Z,27.31
2018-06-30T19:28:34.053Z,27.15
2018-06-30T19:31:06.099Z,27.07
2018-06-30T19:33:36.019Z,27.08
2018-06-30T19:36:06.984Z,27.04
2018-06-30T19:38:38.083Z,27.02
2018-06-30T19:41:09.385Z,26.96
2018-06-30T19:43:40.258Z,26.80
2018-06-30T19:46:10.525Z,26.70
2018-06-30T19:48:40.587Z,26.58
2018-06-30T19:51:11.134Z,26.49
2018-06-30T19:53:41.318Z,26.57
2018-06-30T19:56:11.564Z,26.55
2018-06-30T19:58:41.803Z,26.54
2018-06-30T20:01:12.098Z,26.25
2018-06-30T20:03:42.469Z,26.03
2018-06-30T20:06:12.690Z,26.01
2018-06-30T20:08:43.339Z,26.03
2018-06-30T20:11:13.768Z,26.00
2018-06-30T20:13:44.246Z,26.02
2018-06-30T20:16:14.045Z,26.01
2018-06-30T20:18:44.444Z,25.89
2018-06-30T20:21:14.937Z,25.72
2018-06-30T20:23:45.119Z,25.55
2018-06-30T20:26:15.695Z,25.57
2018-06-30T20:28:46.050Z,25.45
2018-06-30T20:31:16.332Z,25.37
2018-06-30T20:33:46.637Z,25.51
2018-06-30T20:36:16.881Z,25.17
2018-06-30T20:38:47.181Z,25.20
2018-06-30T20:41:18.045Z,25.17
2018-06-30T20:43:48.276Z,25.18
2018-06-30T20:46:18.790Z,25.19
2018-06-30T20:48:49.421Z,25.15
2018-06-30T20:51:19.815Z,25.11
2018-06-30T20:53:49.919Z,25.22
2018-06-30T20:56:20.001Z,25.00
2018-06-30T20:58:50.376Z,25.17
2018-06-30T21:01:20.793Z,25.34
2018-06-30T21:03:50.518Z,25.31
2018-06-30T21:06:20.816Z,25.38
2018-06-30T21:08:51.009Z,25.39
2018-06-30T21:11:22.068Z,25.26
2018-06-30T21:13:52.332Z,25.14
2018-06-30T21:16:23.696Z,25.08
2018-06-30T21:18:53.960Z,25.07
2018-06-30T21:21:24.274Z,24.89
2018-06-30T21:23:54.705Z,24.95
2018-06-30T21:26:24.789Z,24.85
2018-06-30T21:28:55.582Z,24.90
2018-06-30T21:31:25.724Z,24.92
2018-06-30T21:33:55.876Z,24.79
2018-06-30T21:36:26.969Z,24.79
2018-06-30T21:38:58.187Z,25.04
2018-06-30T21:41:28.930Z,25.12
2018-06-30T21:43:59.631Z,25.22
2018-06-30T21:46:29.888Z,25.31
2018-06-30T21:49:00.026Z,25.17
2018-06-30T21:51:30.496Z,25.37
2018-06-30T21:54:00.629Z,25.25
2018-06-30T21:56:30.733Z,25.13
2018-06-30T21:59:00.791Z,24.84
2018-06-30T22:01:31.041Z,24.47
2018-06-30T22:04:02.126Z,24.35
2018-06-30T22:06:32.984Z,24.19
2018-06-30T22:09:03.293Z,23.83
2018-06-30T22:11:33.766Z,23.59
2018-06-30T22:14:04.025Z,23.61
2018-06-30T22:16:34.062Z,23.52
2018-06-30T22:19:04.341Z,23.44
2018-06-30T22:21:34.356Z,23.30
2018-06-30T22:24:04.690Z,23.24
2018-06-30T22:26:34.858Z,23.24
2018-06-30T22:29:05.027Z,23.25
2018-06-30T22:31:35.306Z,23.17
2018-06-30T22:34:05.549Z,23.26
2018-06-30T22:36:35.691Z,23.24
2018-06-30T22:39:08.823Z,23.17
2018-06-30T22:41:39.028Z,23.14
2018-06-30T22:44:09.164Z,23.15
2018-06-30T22:46:39.428Z,23.18
2018-06-30T22:49:09.724Z,23.13
2018-06-30T22:51:39.815Z,23.08
2018-06-30T22:54:09.936Z,22.90
2018-06-30T22:56:40.219Z,22.94
2018-06-30T22:59:10.393Z,22.89
2018-06-30T23:01:40.704Z,22.84
2018-06-30T23:04:10.861Z,22.88
2018-06-30T23:06:40.920Z,22.84
2018-06-30T23:09:11.759Z,22.77
2018-06-30T23:11:41.861Z,22.80
2018-06-30T23:14:12.230Z,22.82
2018-06-30T23:16:42.225Z,22.81
2018-06-30T23:19:12.164Z,22.77
2018-06-30T23:21:42.569Z,22.71
2018-06-30T23:24:12.787Z,22.76
2018-06-30T23:26:42.912Z,22.82
2018-06-30T23:29:13.030Z,22.72
2018-06-30T23:31:43.182Z,22.67
2018-06-30T23:34:13.149Z,22.67
2018-06-30T23:36:43.211Z,22.48
2018-06-30T23:39:13.421Z,22.55
2018-06-30T23:41:43.914Z,22.56
2018-06-30T23:44:14.684Z,22.57
2018-06-30T23:46:45.673Z,22.54
2018-06-30T23:49:16.446Z,22.53
2018-06-30T23:51:46.527Z,22.54
2018-06-30T23:54:16.619Z,22.53
2018-06-30T23:56:46.684Z,22.41
2018-06-30T23:59:16.897Z,22.25
